NWWW METAR and TAF weather

Enter ICAO airport designator
Station Type Date Time Source
NWWW METAR 2020/06/03 15:00 UTC NOAA

NWWW 031500Z AUTO 23003KT 9999 FEW015 BKN110 OVC150 22/20 Q1016 TEMPO 4000 DZRA BKN014 BKN020 BECMG 14010KT


Station Type Date Time Source
NWWW Decoded METAR 2020/06/03 15:00 UTC NOAA

La Tontouta Nlle-Caledonie , New Caledonia (NWWW) 22-01S 166-13E 14M
Jun 03, 2020 - 11:00 AM EDT / 2020.06.03 1500 UTC
Wind: from the SW (230 degrees) at 3 MPH (3 KT):0
Visibility: greater than 7 mile(s):0
Sky conditions: overcast
Temperature: 71 F (22 C)
Dew Point: 68 F (20 C)
Relative Humidity: 88%
Pressure (altimeter): 30.00 in. Hg (1016 hPa)
ob: NWWW 031500Z AUTO 23003KT 9999 FEW015 BKN110 OVC150 22/20 Q1016 TEMPO 4000 DZRA BKN014 BKN020 BECMG 14010KT
cycle: 15

Station Type Date Time Source
NWWW TAF 2020/06/03 12:43 UTC NOAA

TAF NWWW 031100Z 0312/0412 VRB02KT 9999 SCT015 SCT020 BKN140 PROB40
TEMPO 0312/0321 4000 DZRA BKN014 BKN020
BECMG 0315/0318 14010KT PROB40
TEMPO 0321/0404 4000 SHRA BKN014 SCT020TCU BKN025
BECMG 0406/0409 VRB02KT

Example: see airport list